Time;durP1;ratioP1;P1;durP2;ratioP2;P2;SDS_P1;SDS_P2;PMS_P1;PMS_P2;Temp;Humidity;BMP_temperature;BMP_pressure;BME280_temperature;BME280_humidity;BME280_pressure;Samples;Min_cycle;Max_cycle;Signal;HPM_P1;HPM_P2
2023/10/28 00:01:11;;;;;;;;;;;17.40;71.50;;;;;;10232031;28;93959;-45
2023/10/28 00:06:13;;;;;;;;;;;17.40;71.40;;;;;;10200087;28;94136;-48
2023/10/28 00:11:19;;;;;;;;;;;17.40;71.40;;;;;;10244274;28;93058;-45
2023/10/28 00:16:21;;;;;;;;;;;17.40;71.40;;;;;;10222284;28;94334;-47
2023/10/28 00:21:23;;;;;;;;;;;17.40;71.30;;;;;;10235266;28;93512;-44
2023/10/28 00:26:27;;;;;;;;;;;17.40;72.20;;;;;;10244760;28;92903;-44
2023/10/28 00:31:28;;;;;;;;;;;17.40;71.20;;;;;;10236673;28;95246;-47
2023/10/28 00:36:30;;;;;;;;;;;17.40;71.20;;;;;;10243192;28;95864;-46
2023/10/28 00:41:32;;;;;;;;;;;17.40;71.10;;;;;;10241069;28;93910;-46
2023/10/28 00:46:34;;;;;;;;;;;17.40;71.00;;;;;;10256328;28;92832;-46
2023/10/28 00:51:37;;;;;;;;;;;17.40;71.00;;;;;;10221743;28;93731;-46
2023/10/28 00:56:39;;;;;;;;;;;17.40;70.90;;;;;;10240174;28;92958;-44
2023/10/28 01:06:59;;;;;;;;;;;17.40;70.80;;;;;;10223579;23;93099;-65
2023/10/28 01:12:02;;;;;;;;;;;17.40;70.80;;;;;;10228183;28;93245;-65
2023/10/28 01:17:04;;;;;;;;;;;17.40;70.80;;;;;;10225465;28;93787;-65
2023/10/28 01:22:05;;;;;;;;;;;17.40;70.80;;;;;;10232283;28;95019;-65
2023/10/28 01:27:09;;;;;;;;;;;17.40;70.70;;;;;;10230271;28;95984;-65
2023/10/28 01:32:11;;;;;;;;;;;17.40;70.70;;;;;;10219489;28;93429;-66
2023/10/28 01:37:16;;;;;;;;;;;17.40;71.70;;;;;;10223497;28;93189;-65
2023/10/28 01:42:18;;;;;;;;;;;17.30;70.70;;;;;;10229371;28;93492;-65
2023/10/28 01:47:20;;;;;;;;;;;17.30;70.60;;;;;;10236659;28;92916;-65
2023/10/28 01:52:21;;;;;;;;;;;17.30;70.70;;;;;;10247166;28;93778;-65
2023/10/28 01:57:23;;;;;;;;;;;17.30;70.70;;;;;;10234080;28;93700;-65
2023/10/28 02:02:25;;;;;;;;;;;17.30;70.70;;;;;;10209454;28;93223;-65
2023/10/28 02:07:27;;;;;;;;;;;17.30;70.70;;;;;;10236622;28;94019;-65
2023/10/28 02:12:34;;;;;;;;;;;17.30;70.60;;;;;;10224520;28;96689;-65
2023/10/28 02:17:36;;;;;;;;;;;17.30;70.70;;;;;;10219288;28;93895;-66
2023/10/28 02:22:38;;;;;;;;;;;17.30;70.70;;;;;;10188882;28;93474;-65
2023/10/28 02:27:40;;;;;;;;;;;17.20;70.60;;;;;;10204180;28;93663;-65
2023/10/28 02:32:41;;;;;;;;;;;17.20;70.50;;;;;;10228165;28;93883;-65
2023/10/28 02:37:44;;;;;;;;;;;17.20;70.60;;;;;;10229837;28;93261;-65
2023/10/28 02:42:46;;;;;;;;;;;17.20;70.60;;;;;;10234803;28;93618;-66
2023/10/28 02:47:49;;;;;;;;;;;17.20;70.60;;;;;;10226105;28;92566;-65
2023/10/28 02:52:51;;;;;;;;;;;17.20;70.70;;;;;;10222056;28;93866;-65
2023/10/28 02:57:53;;;;;;;;;;;17.20;70.70;;;;;;10236869;28;93657;-65
2023/10/28 03:02:57;;;;;;;;;;;17.20;70.70;;;;;;10240006;28;95412;-65
2023/10/28 03:07:59;;;;;;;;;;;17.20;70.70;;;;;;10228463;28;96355;-65
2023/10/28 03:13:01;;;;;;;;;;;17.20;70.70;;;;;;10244841;28;92880;-64
2023/10/28 03:18:02;;;;;;;;;;;17.10;70.60;;;;;;10209732;28;94629;-65
2023/10/28 03:23:05;;;;;;;;;;;17.10;70.60;;;;;;10246252;28;94010;-66
2023/10/28 03:28:08;;;;;;;;;;;17.10;70.60;;;;;;10244010;28;94327;-65
2023/10/28 03:33:09;;;;;;;;;;;17.10;70.60;;;;;;10224614;28;93399;-65
2023/10/28 03:38:11;;;;;;;;;;;17.10;70.60;;;;;;10242347;28;92762;-65
2023/10/28 03:43:13;;;;;;;;;;;17.10;70.60;;;;;;10225085;28;93481;-65
2023/10/28 03:48:15;;;;;;;;;;;17.10;70.60;;;;;;10228905;28;94112;-66
2023/10/28 03:53:17;;;;;;;;;;;17.10;70.60;;;;;;10243786;28;95247;-65
2023/10/28 03:58:19;;;;;;;;;;;17.10;70.60;;;;;;10248381;28;95177;-65
2023/10/28 04:03:21;;;;;;;;;;;17.00;70.50;;;;;;10257303;28;93663;-65
2023/10/28 04:08:23;;;;;;;;;;;17.10;70.60;;;;;;10240960;28;92945;-65
2023/10/28 04:13:25;;;;;;;;;;;17.00;70.60;;;;;;10237103;28;93076;-65
2023/10/28 04:18:27;;;;;;;;;;;17.00;70.60;;;;;;10248493;28;93815;-66
2023/10/28 04:23:29;;;;;;;;;;;17.00;70.50;;;;;;10231431;28;93840;-66
2023/10/28 04:28:30;;;;;;;;;;;17.00;70.50;;;;;;10236826;28;93883;-66
2023/10/28 04:33:32;;;;;;;;;;;17.00;70.60;;;;;;10232651;28;93022;-66
2023/10/28 04:38:40;;;;;;;;;;;17.00;70.50;;;;;;10246045;28;93238;-66
2023/10/28 04:43:41;;;;;;;;;;;17.10;70.60;;;;;;10234656;28;95660;-66
2023/10/28 04:48:46;;;;;;;;;;;17.00;70.70;;;;;;10235454;28;96287;-65
2023/10/28 04:53:48;;;;;;;;;;;17.00;70.70;;;;;;10230081;28;93606;-65
2023/10/28 04:58:49;;;;;;;;;;;17.10;70.70;;;;;;10239740;28;93142;-68
2023/10/28 05:03:51;;;;;;;;;;;17.10;70.70;;;;;;10246855;28;93000;-68
2023/10/28 05:08:53;;;;;;;;;;;17.20;70.60;;;;;;10238992;28;93826;-68
2023/10/28 05:13:55;;;;;;;;;;;17.20;70.50;;;;;;10214670;28;94478;-68
2023/10/28 05:18:57;;;;;;;;;;;17.30;70.60;;;;;;10236643;28;94155;-68
2023/10/28 05:23:59;;;;;;;;;;;17.30;70.60;;;;;;10234182;28;93556;-68
2023/10/28 05:29:01;;;;;;;;;;;17.30;70.60;;;;;;10244591;28;92611;-68
2023/10/28 05:34:03;;;;;;;;;;;17.30;70.60;;;;;;10242782;28;95390;-69
2023/10/28 05:39:07;;;;;;;;;;;17.30;70.80;;;;;;10246006;28;96153;-68
2023/10/28 05:44:08;;;;;;;;;;;17.40;70.80;;;;;;10232209;28;92758;-68
2023/10/28 05:49:12;;;;;;;;;;;17.30;70.80;;;;;;10239797;28;93395;-68
2023/10/28 05:54:14;;;;;;;;;;;17.30;70.90;;;;;;10224260;28;92879;-68
2023/10/28 05:59:16;;;;;;;;;;;17.30;71.00;;;;;;10235105;28;93746;-69
2023/10/28 06:04:21;;;;;;;;;;;17.30;71.10;;;;;;10228286;28;93884;-68
2023/10/28 06:09:23;;;;;;;;;;;17.30;71.20;;;;;;10241955;28;92967;-68
2023/10/28 06:14:25;;;;;;;;;;;17.30;71.30;;;;;;10245546;28;92563;-68
2023/10/28 06:19:27;;;;;;;;;;;17.30;71.30;;;;;;10215228;28;93099;-68
2023/10/28 06:24:28;;;;;;;;;;;17.30;71.40;;;;;;10225577;28;95035;-69
2023/10/28 06:29:31;;;;;;;;;;;17.30;71.50;;;;;;10216693;28;96521;-68
2023/10/28 06:34:32;;;;;;;;;;;17.30;71.60;;;;;;10225600;28;94190;-68
2023/10/28 06:39:34;;;;;;;;;;;17.30;71.60;;;;;;10235340;28;93819;-68
2023/10/28 06:44:36;;;;;;;;;;;17.30;71.60;;;;;;10234576;28;92751;-68
2023/10/28 06:49:38;;;;;;;;;;;17.30;71.70;;;;;;10243139;28;93771;-69
2023/10/28 06:54:40;;;;;;;;;;;17.30;71.80;;;;;;10231431;28;93639;-68
2023/10/28 06:59:42;;;;;;;;;;;17.30;71.90;;;;;;10244117;28;93180;-68
2023/10/28 07:04:45;;;;;;;;;;;17.30;71.80;;;;;;10227415;28;93755;-68
2023/10/28 07:09:47;;;;;;;;;;;17.40;71.80;;;;;;10238278;28;94679;-69
2023/10/28 07:14:49;;;;;;;;;;;17.40;71.80;;;;;;10241642;28;95099;-69
2023/10/28 07:19:54;;;;;;;;;;;17.50;71.80;;;;;;10234155;28;96106;-69
2023/10/28 07:24:56;;;;;;;;;;;17.50;71.80;;;;;;10249768;28;93791;-70
2023/10/28 07:29:59;;;;;;;;;;;17.60;71.60;;;;;;10256065;28;93888;-70
2023/10/28 07:35:02;;;;;;;;;;;17.70;71.60;;;;;;10245311;28;94105;-71
2023/10/28 07:40:04;;;;;;;;;;;17.70;71.80;;;;;;10236988;28;94105;-69
2023/10/28 07:45:06;;;;;;;;;;;17.70;72.30;;;;;;10244485;28;93908;-69
2023/10/28 07:50:08;;;;;;;;;;;17.70;72.80;;;;;;10241309;28;93944;-66
2023/10/28 07:55:11;;;;;;;;;;;17.80;72.60;;;;;;10226633;28;93461;-67
2023/10/28 08:00:13;;;;;;;;;;;17.80;72.90;;;;;;10219722;28;92824;-65
2023/10/28 08:05:15;;;;;;;;;;;17.90;72.80;;;;;;10213933;28;96475;-66
2023/10/28 08:10:22;;;;;;;;;;;17.90;72.90;;;;;;10232867;28;95170;-66
2023/10/28 08:15:24;;;;;;;;;;;17.80;72.70;;;;;;10243724;28;94248;-66
2023/10/28 08:20:26;;;;;;;;;;;17.80;72.70;;;;;;10237523;28;93108;-66
2023/10/28 08:25:28;;;;;;;;;;;17.80;72.70;;;;;;10236122;28;94228;-66
2023/10/28 08:30:30;;;;;;;;;;;17.80;73.10;;;;;;10243314;28;94035;-66
2023/10/28 08:35:32;;;;;;;;;;;17.80;73.40;;;;;;10225001;28;94222;-66
2023/10/28 08:40:34;;;;;;;;;;;17.80;73.50;;;;;;10231527;28;93742;-65
2023/10/28 08:45:37;;;;;;;;;;;17.80;73.50;;;;;;10243208;28;94498;-66
2023/10/28 08:50:40;;;;;;;;;;;17.80;73.70;;;;;;10225202;28;93184;-68
2023/10/28 08:55:43;;;;;;;;;;;17.80;73.90;;;;;;10237408;28;96867;-68
2023/10/28 09:00:46;;;;;;;;;;;17.80;74.00;;;;;;10218377;28;94957;-69
2023/10/28 09:05:53;;;;;;;;;;;17.80;73.90;;;;;;10241222;28;95481;-67
2023/10/28 09:10:57;;;;;;;;;;;17.80;73.90;;;;;;10236276;28;96605;-66
2023/10/28 09:16:00;;;;;;;;;;;17.80;73.90;;;;;;10203353;28;93265;-68
2023/10/28 09:21:02;;;;;;;;;;;17.80;73.50;;;;;;10224324;28;93398;-68
2023/10/28 09:26:08;;;;;;;;;;;17.80;73.70;;;;;;10208765;28;93853;-68
2023/10/28 09:31:09;;;;;;;;;;;17.70;73.40;;;;;;10214663;28;94342;-68
2023/10/28 09:36:11;;;;;;;;;;;17.70;73.40;;;;;;10196221;28;93861;-68
2023/10/28 09:41:13;;;;;;;;;;;17.70;73.40;;;;;;10221565;28;94064;-68
2023/10/28 09:46:19;;;;;;;;;;;17.70;73.40;;;;;;10217912;28;94956;-67
2023/10/28 09:51:23;;;;;;;;;;;17.70;73.30;;;;;;10239078;28;95317;-68
2023/10/28 09:56:27;;;;;;;;;;;17.70;73.50;;;;;;10228755;28;93001;-68
2023/10/28 10:01:36;;;;;;;;;;;17.70;73.60;;;;;;10236563;28;94308;-68
2023/10/28 10:06:38;;;;;;;;;;;17.70;73.60;;;;;;10235586;28;94479;-67
2023/10/28 10:11:42;;;;;;;;;;;17.70;74.50;;;;;;10226823;28;94293;-68
2023/10/28 10:16:45;;;;;;;;;;;17.80;73.50;;;;;;10210247;28;94108;-68
2023/10/28 10:21:52;;;;;;;;;;;17.80;73.50;;;;;;10223576;28;102912;-68
2023/10/28 10:26:55;;;;;;;;;;;17.80;73.40;;;;;;10228315;28;93188;-68
2023/10/28 10:31:57;;;;;;;;;;;17.80;73.50;;;;;;10232533;28;93404;-68
2023/10/28 10:36:58;;;;;;;;;;;17.90;73.60;;;;;;10232029;28;96802;-68
2023/10/28 10:42:05;;;;;;;;;;;17.90;74.20;;;;;;10235133;28;96207;-68
2023/10/28 10:47:08;;;;;;;;;;;17.90;73.10;;;;;;10230632;28;93802;-69
2023/10/28 10:52:10;;;;;;;;;;;17.80;72.90;;;;;;10238620;28;92854;-68
2023/10/28 10:57:13;;;;;;;;;;;17.80;73.00;;;;;;10238025;28;93219;-69
2023/10/28 11:02:14;;;;;;;;;;;17.80;73.00;;;;;;10232143;28;93832;-68
2023/10/28 11:07:16;;;;;;;;;;;17.80;73.00;;;;;;10236596;28;93756;-67
2023/10/28 11:12:21;;;;;;;;;;;17.70;72.90;;;;;;10238983;28;93467;-67
2023/10/28 11:17:24;;;;;;;;;;;17.70;72.80;;;;;;10235513;28;92942;-67
2023/10/28 11:22:28;;;;;;;;;;;17.70;72.80;;;;;;10236151;28;94174;-69
2023/10/28 11:27:30;;;;;;;;;;;17.70;73.00;;;;;;10219569;28;96012;-68
2023/10/28 11:32:41;;;;;;;;;;;17.60;72.70;;;;;;10220010;28;96265;-69
2023/10/28 11:37:43;;;;;;;;;;;17.70;72.70;;;;;;10235982;28;93621;-68
2023/10/28 11:42:45;;;;;;;;;;;17.60;72.70;;;;;;10214927;28;92561;-68
2023/10/28 11:47:47;;;;;;;;;;;17.60;72.70;;;;;;10237582;28;93243;-68
2023/10/28 11:52:49;;;;;;;;;;;17.60;72.80;;;;;;10226718;28;92998;-67
2023/10/28 11:57:51;;;;;;;;;;;17.60;72.80;;;;;;10229277;28;93554;-67
2023/10/28 12:02:53;;;;;;;;;;;17.60;72.80;;;;;;10205432;28;93763;-67
2023/10/28 12:07:55;;;;;;;;;;;17.60;72.70;;;;;;10246893;28;93357;-67
2023/10/28 12:12:57;;;;;;;;;;;17.60;72.80;;;;;;10245538;28;93769;-68
2023/10/28 12:17:58;;;;;;;;;;;17.60;72.80;;;;;;10224640;28;95592;-68
2023/10/28 12:23:00;;;;;;;;;;;17.50;72.70;;;;;;10245853;28;95940;-68
2023/10/28 12:28:02;;;;;;;;;;;17.60;72.70;;;;;;10243694;28;92847;-68
2023/10/28 12:33:04;;;;;;;;;;;17.50;72.70;;;;;;10243636;28;93028;-69
2023/10/28 12:38:07;;;;;;;;;;;17.50;72.60;;;;;;10239521;28;93043;-68
2023/10/28 12:43:09;;;;;;;;;;;17.60;72.60;;;;;;10210034;28;93037;-68
2023/10/28 12:48:10;;;;;;;;;;;17.60;72.60;;;;;;10244375;28;93444;-68
2023/10/28 12:53:13;;;;;;;;;;;17.60;72.60;;;;;;10222244;28;93754;-68
2023/10/28 12:58:16;;;;;;;;;;;17.50;72.50;;;;;;10245518;28;93792;-68
2023/10/28 13:03:18;;;;;;;;;;;17.60;72.60;;;;;;10231683;28;94213;-68
2023/10/28 13:08:21;;;;;;;;;;;17.50;72.50;;;;;;10232790;28;96247;-68
2023/10/28 13:13:23;;;;;;;;;;;17.60;72.60;;;;;;10241304;28;95357;-68
2023/10/28 13:18:25;;;;;;;;;;;17.60;72.50;;;;;;10231487;28;93519;-68
2023/10/28 13:23:27;;;;;;;;;;;17.60;72.40;;;;;;10235423;28;94193;-67
2023/10/28 13:28:29;;;;;;;;;;;17.60;72.30;;;;;;10219820;28;93979;-68
2023/10/28 13:33:35;;;;;;;;;;;17.60;72.30;;;;;;10242367;28;94029;-67
2023/10/28 13:38:38;;;;;;;;;;;17.60;72.20;;;;;;10243558;28;92960;-67
2023/10/28 13:43:40;;;;;;;;;;;17.70;72.20;;;;;;10220629;28;93127;-67
2023/10/28 13:48:42;;;;;;;;;;;17.60;72.20;;;;;;10243041;28;92890;-67
2023/10/28 13:53:44;;;;;;;;;;;17.60;72.10;;;;;;10235995;28;93111;-68
2023/10/28 13:58:46;;;;;;;;;;;17.60;72.10;;;;;;10236795;28;95724;-68
2023/10/28 14:03:48;;;;;;;;;;;17.60;72.00;;;;;;10213056;28;96941;-67
2023/10/28 14:08:50;;;;;;;;;;;17.60;72.00;;;;;;10238754;28;93632;-67
2023/10/28 14:13:51;;;;;;;;;;;17.60;72.00;;;;;;10222157;28;94070;-68
2023/10/28 14:18:53;;;;;;;;;;;17.50;71.90;;;;;;10238171;28;94205;-68
2023/10/28 14:23:55;;;;;;;;;;;17.60;71.90;;;;;;10234354;28;93668;-68
2023/10/28 14:28:57;;;;;;;;;;;17.60;71.90;;;;;;10238067;28;93388;-68
2023/10/28 14:34:00;;;;;;;;;;;17.60;71.80;;;;;;10231322;28;92722;-68
2023/10/28 14:39:03;;;;;;;;;;;17.60;71.80;;;;;;10233969;28;93254;-68
2023/10/28 14:44:06;;;;;;;;;;;17.60;71.80;;;;;;10234743;28;94491;-67
2023/10/28 14:49:11;;;;;;;;;;;17.60;71.80;;;;;;10243509;28;95356;-68
2023/10/28 14:54:13;;;;;;;;;;;17.60;71.80;;;;;;10210778;28;97879;-67
2023/10/28 14:59:15;;;;;;;;;;;17.70;71.70;;;;;;10228548;28;92848;-67
2023/10/28 15:04:17;;;;;;;;;;;17.70;71.70;;;;;;10230073;28;92999;-67
2023/10/28 15:09:19;;;;;;;;;;;17.80;71.50;;;;;;10230123;28;93101;-67
2023/10/28 15:14:22;;;;;;;;;;;17.80;71.40;;;;;;10221159;28;93026;-67
2023/10/28 15:19:24;;;;;;;;;;;17.80;71.30;;;;;;10214809;28;92965;-68
2023/10/28 15:24:26;;;;;;;;;;;17.90;71.20;;;;;;10239621;28;93795;-67
2023/10/28 15:29:28;;;;;;;;;;;17.90;71.10;;;;;;10218756;28;93596;-68
2023/10/28 15:34:33;;;;;;;;;;;17.90;71.10;;;;;;10239218;28;92856;-68
2023/10/28 15:39:34;;;;;;;;;;;17.90;71.00;;;;;;10224136;28;95978;-67
2023/10/28 15:44:37;;;;;;;;;;;17.90;71.00;;;;;;10201017;28;95457;-67
2023/10/28 15:49:38;;;;;;;;;;;17.90;70.90;;;;;;10225844;28;92970;-68
2023/10/28 15:54:40;;;;;;;;;;;17.90;70.80;;;;;;10234558;28;94019;-67
2023/10/28 15:59:45;;;;;;;;;;;17.90;70.80;;;;;;10223428;28;92792;-67
2023/10/28 16:04:47;;;;;;;;;;;17.90;70.80;;;;;;10219329;28;96074;-67
2023/10/28 16:09:49;;;;;;;;;;;17.90;70.80;;;;;;10233843;28;92883;-67
2023/10/28 16:14:51;;;;;;;;;;;17.90;70.70;;;;;;10248397;28;93778;-67
2023/10/28 16:19:53;;;;;;;;;;;17.90;70.70;;;;;;10239829;28;93083;-67
2023/10/28 16:24:55;;;;;;;;;;;17.90;70.70;;;;;;10221474;28;93749;-67
2023/10/28 16:29:57;;;;;;;;;;;17.90;70.70;;;;;;10230923;28;95218;-67
2023/10/28 16:34:59;;;;;;;;;;;17.90;70.60;;;;;;10238642;28;96172;-67
2023/10/28 16:40:01;;;;;;;;;;;17.90;70.60;;;;;;10233344;28;93688;-67
2023/10/28 16:45:03;;;;;;;;;;;17.90;70.50;;;;;;10239153;28;93333;-67
2023/10/28 16:50:05;;;;;;;;;;;17.90;71.60;;;;;;10246104;28;94115;-67
2023/10/28 16:55:07;;;;;;;;;;;18.00;70.60;;;;;;10235920;28;93815;-67
2023/10/28 17:00:12;;;;;;;;;;;17.90;70.40;;;;;;10240926;28;93795;-68
2023/10/28 17:05:15;;;;;;;;;;;17.90;70.40;;;;;;10221412;28;93609;-68
2023/10/28 17:10:17;;;;;;;;;;;17.90;70.40;;;;;;10242795;28;93268;-67
2023/10/28 17:15:19;;;;;;;;;;;17.90;70.40;;;;;;10223260;28;94063;-67
2023/10/28 17:20:21;;;;;;;;;;;17.90;70.40;;;;;;10243261;28;95177;-67
2023/10/28 17:25:23;;;;;;;;;;;17.90;70.40;;;;;;10222361;28;96628;-68
2023/10/28 17:30:25;;;;;;;;;;;17.90;70.40;;;;;;10234799;28;96471;-67
2023/10/28 17:35:27;;;;;;;;;;;17.90;70.50;;;;;;10238576;28;93547;-67
2023/10/28 17:40:29;;;;;;;;;;;17.90;70.40;;;;;;10220352;28;93573;-67
2023/10/28 17:45:31;;;;;;;;;;;17.90;70.30;;;;;;10237260;28;93643;-67
2023/10/28 17:50:33;;;;;;;;;;;18.00;70.30;;;;;;10226005;28;95095;-67
2023/10/28 17:55:36;;;;;;;;;;;18.00;70.20;;;;;;10230336;28;93772;-68
2023/10/28 18:00:39;;;;;;;;;;;18.00;70.40;;;;;;10238746;28;93470;-68
2023/10/28 18:05:41;;;;;;;;;;;18.00;70.10;;;;;;10221500;28;92918;-68
2023/10/28 18:10:43;;;;;;;;;;;18.00;70.00;;;;;;10240899;28;96171;-68
2023/10/28 18:15:46;;;;;;;;;;;18.00;70.00;;;;;;10235457;28;95166;-68
2023/10/28 18:20:47;;;;;;;;;;;18.00;69.90;;;;;;10243704;28;93948;-67
2023/10/28 18:25:49;;;;;;;;;;;18.10;69.90;;;;;;10242410;28;93865;-67
2023/10/28 18:30:52;;;;;;;;;;;18.10;69.80;;;;;;10227739;28;93906;-67
2023/10/28 18:35:54;;;;;;;;;;;18.10;69.70;;;;;;10242305;28;95179;-67
2023/10/28 18:40:57;;;;;;;;;;;18.10;69.70;;;;;;10216514;28;92861;-67
2023/10/28 18:46:00;;;;;;;;;;;18.10;69.70;;;;;;10236312;28;93141;-68
2023/10/28 18:51:03;;;;;;;;;;;18.10;69.60;;;;;;10229169;28;95055;-67
2023/10/28 18:56:07;;;;;;;;;;;18.10;69.50;;;;;;10242349;28;93938;-67
2023/10/28 19:01:15;;;;;;;;;;;18.10;69.50;;;;;;10216851;28;95350;-68
2023/10/28 19:06:16;;;;;;;;;;;18.10;69.50;;;;;;10202226;28;96404;-68
2023/10/28 19:11:18;;;;;;;;;;;18.10;69.50;;;;;;10199034;28;94001;-67
2023/10/28 19:16:20;;;;;;;;;;;18.10;69.40;;;;;;10236773;28;93649;-68
2023/10/28 19:21:22;;;;;;;;;;;18.20;69.40;;;;;;10214989;28;94190;-68
2023/10/28 19:26:24;;;;;;;;;;;18.10;69.30;;;;;;10230544;28;92900;-68
2023/10/28 19:31:26;;;;;;;;;;;18.10;69.30;;;;;;10223124;28;94284;-68
2023/10/28 19:36:28;;;;;;;;;;;18.10;69.30;;;;;;10234008;28;93754;-68
2023/10/28 19:41:29;;;;;;;;;;;18.10;69.30;;;;;;10232013;28;93122;-67
2023/10/28 19:46:31;;;;;;;;;;;18.10;69.30;;;;;;10238537;28;93705;-69
2023/10/28 19:51:33;;;;;;;;;;;18.10;69.20;;;;;;10216158;28;95870;-68
2023/10/28 19:56:35;;;;;;;;;;;18.10;69.10;;;;;;10230579;28;95455;-69
2023/10/28 20:01:36;;;;;;;;;;;18.10;69.10;;;;;;10215618;28;93730;-68
2023/10/28 20:06:38;;;;;;;;;;;18.10;69.20;;;;;;10241106;28;93222;-69
2023/10/28 20:11:41;;;;;;;;;;;18.00;69.10;;;;;;10244893;28;93800;-68
2023/10/28 20:16:43;;;;;;;;;;;18.00;69.20;;;;;;10226596;28;93079;-68
2023/10/28 20:21:45;;;;;;;;;;;18.00;69.20;;;;;;10229839;28;94295;-69
2023/10/28 20:26:47;;;;;;;;;;;18.00;69.30;;;;;;10240331;28;93482;-69
2023/10/28 20:31:49;;;;;;;;;;;17.90;69.30;;;;;;10226621;28;93245;-68
2023/10/28 20:36:50;;;;;;;;;;;17.90;69.30;;;;;;10234091;28;94626;-68
2023/10/28 20:41:52;;;;;;;;;;;17.80;69.30;;;;;;10243647;28;95547;-67
2023/10/28 20:46:54;;;;;;;;;;;17.80;69.40;;;;;;10246482;28;95972;-68
2023/10/28 20:51:56;;;;;;;;;;;17.80;69.40;;;;;;10242083;28;92946;-68
2023/10/28 20:56:57;;;;;;;;;;;17.80;69.50;;;;;;10242431;28;93807;-68
2023/10/28 21:01:59;;;;;;;;;;;17.80;69.50;;;;;;10226953;28;93815;-68
2023/10/28 21:07:06;;;;;;;;;;;17.70;69.60;;;;;;10220811;28;93732;-68
2023/10/28 21:12:08;;;;;;;;;;;17.70;69.60;;;;;;10241867;28;93949;-68
2023/10/28 21:17:10;;;;;;;;;;;17.70;69.70;;;;;;10232467;28;93909;-68
2023/10/28 21:22:12;;;;;;;;;;;17.70;69.70;;;;;;10243017;28;93641;-68
2023/10/28 21:27:14;;;;;;;;;;;17.70;69.70;;;;;;10194376;28;93153;-67
2023/10/28 21:32:18;;;;;;;;;;;17.60;69.80;;;;;;10237115;28;95324;-68
2023/10/28 21:37:20;;;;;;;;;;;17.60;69.90;;;;;;10221646;28;95014;-68
2023/10/28 21:42:21;;;;;;;;;;;17.60;69.90;;;;;;10217403;28;93084;-68
2023/10/28 21:47:23;;;;;;;;;;;17.50;69.80;;;;;;10237955;28;95098;-67
2023/10/28 21:52:25;;;;;;;;;;;17.50;69.90;;;;;;10239667;28;92939;-68
2023/10/28 21:57:27;;;;;;;;;;;17.50;69.90;;;;;;10224861;28;93552;-68
2023/10/28 22:02:29;;;;;;;;;;;17.50;70.00;;;;;;10230506;28;94771;-67
2023/10/28 22:07:31;;;;;;;;;;;17.50;70.10;;;;;;10240646;28;92982;-68
2023/10/28 22:12:33;;;;;;;;;;;17.50;70.10;;;;;;10234238;28;93109;-67
2023/10/28 22:17:36;;;;;;;;;;;17.40;69.90;;;;;;10239033;28;93575;-67
2023/10/28 22:22:39;;;;;;;;;;;17.40;70.00;;;;;;10221577;28;95530;-67
2023/10/28 22:27:41;;;;;;;;;;;17.40;70.00;;;;;;10229758;28;96650;-68
2023/10/28 22:32:43;;;;;;;;;;;17.50;70.00;;;;;;10236657;28;93258;-68
2023/10/28 22:37:45;;;;;;;;;;;17.40;69.90;;;;;;10221217;28;93574;-68
2023/10/28 22:42:47;;;;;;;;;;;17.40;69.90;;;;;;10239149;28;93164;-67
2023/10/28 22:47:49;;;;;;;;;;;17.40;69.90;;;;;;10230191;28;94221;-67
2023/10/28 22:52:51;;;;;;;;;;;17.40;69.90;;;;;;10229013;28;94232;-67
2023/10/28 22:57:55;;;;;;;;;;;17.40;69.90;;;;;;10236459;28;93141;-67
2023/10/28 23:02:57;;;;;;;;;;;17.40;69.80;;;;;;10240763;28;93218;-67
2023/10/28 23:08:00;;;;;;;;;;;17.40;69.80;;;;;;10245339;28;93947;-68
2023/10/28 23:13:02;;;;;;;;;;;17.40;69.80;;;;;;10200752;28;95492;-68
2023/10/28 23:18:04;;;;;;;;;;;17.40;69.70;;;;;;10235118;28;96294;-67
2023/10/28 23:23:06;;;;;;;;;;;17.50;69.80;;;;;;10240380;28;93657;-68
2023/10/28 23:28:09;;;;;;;;;;;17.40;69.70;;;;;;10239739;28;94090;-67
2023/10/28 23:33:11;;;;;;;;;;;17.40;69.70;;;;;;10234862;28;93822;-68
2023/10/28 23:38:14;;;;;;;;;;;17.40;69.70;;;;;;10234578;28;93127;-68
2023/10/28 23:43:16;;;;;;;;;;;17.40;69.70;;;;;;10234243;28;92973;-68
2023/10/28 23:48:17;;;;;;;;;;;17.40;69.70;;;;;;10247255;28;93351;-68
2023/10/28 23:53:20;;;;;;;;;;;17.40;69.70;;;;;;10232512;28;93354;-68
2023/10/28 23:58:22;;;;;;;;;;;17.40;69.80;;;;;;10233784;28;94451;-67
